createdAt,value
2023-04-09T00:01:07.637Z,78.75
2023-04-09T00:03:36.474Z,77.00
2023-04-09T00:06:04.425Z,69.75
2023-04-09T00:08:31.931Z,66.50
2023-04-09T00:10:59.799Z,61.50
2023-04-09T00:13:38.583Z,76.00
2023-04-09T00:16:07.852Z,78.75
2023-04-09T00:18:35.445Z,87.00
2023-04-09T00:21:02.508Z,76.00
2023-04-09T00:23:30.848Z,75.50
2023-04-09T00:25:57.841Z,92.75
2023-04-09T00:28:25.454Z,83.75
2023-04-09T00:30:53.004Z,28.00
2023-04-09T00:33:20.449Z,82.50
2023-04-09T00:35:47.362Z,85.50
2023-04-09T00:38:14.938Z,75.00
2023-04-09T00:40:42.356Z,75.25
2023-04-09T00:43:09.876Z,73.25
2023-04-09T00:45:37.131Z,75.50
2023-04-09T00:48:04.726Z,78.25
2023-04-09T00:50:31.621Z,75.50
2023-04-09T00:52:59.135Z,69.25
2023-04-09T00:55:26.386Z,68.75
2023-04-09T00:57:53.553Z,69.75
2023-04-09T01:00:20.828Z,68.25
2023-04-09T01:02:48.631Z,60.50
2023-04-09T01:05:16.281Z,75.00
2023-04-09T01:08:07.830Z,72.50
2023-04-09T01:11:07.188Z,77.50
2023-04-09T01:13:40.874Z,72.50
2023-04-09T01:16:09.378Z,70.00
2023-04-09T01:18:43.571Z,71.75
2023-04-09T01:21:14.378Z,77.00
2023-04-09T01:23:56.353Z,74.25
2023-04-09T01:26:29.958Z,64.25
2023-04-09T01:28:57.959Z,73.25
2023-04-09T01:31:51.377Z,77.00
2023-04-09T01:34:20.580Z,72.50
2023-04-09T01:36:52.368Z,67.25
2023-04-09T01:39:20.875Z,71.00
2023-04-09T01:41:48.737Z,66.75
2023-04-09T01:44:16.350Z,68.25
2023-04-09T01:46:43.520Z,68.75
2023-04-09T01:49:11.272Z,64.50
2023-04-09T01:51:38.516Z,65.25
2023-04-09T01:54:06.245Z,66.00
2023-04-09T01:56:46.129Z,62.75
2023-04-09T01:59:14.102Z,63.00
2023-04-09T02:01:48.099Z,53.75
2023-04-09T02:04:43.893Z,56.25
2023-04-09T02:07:38.385Z,59.00
2023-04-09T02:10:07.264Z,55.75
2023-04-09T02:12:37.035Z,56.25
2023-04-09T02:15:05.317Z,55.00
2023-04-09T02:17:32.825Z,56.00
2023-04-09T02:20:00.381Z,49.75
2023-04-09T02:22:27.346Z,49.50
2023-04-09T02:24:54.760Z,55.50
2023-04-09T02:27:21.770Z,51.00
2023-04-09T02:29:49.124Z,56.75
2023-04-09T02:32:16.344Z,54.75
2023-04-09T02:34:43.734Z,48.50
2023-04-09T02:37:10.856Z,50.75
2023-04-09T02:39:38.236Z,49.25
2023-04-09T02:42:05.789Z,56.50
2023-04-09T02:44:33.012Z,54.25
2023-04-09T02:47:00.507Z,56.50
2023-04-09T02:49:28.057Z,56.75
2023-04-09T02:51:55.117Z,59.75
2023-04-09T02:54:22.495Z,61.25
2023-04-09T02:56:49.511Z,59.75
2023-04-09T02:59:16.795Z,55.25
2023-04-09T03:01:43.877Z,43.25
2023-04-09T03:04:11.304Z,53.25
2023-04-09T03:06:38.619Z,58.50
2023-04-09T03:09:06.178Z,58.50
2023-04-09T03:11:33.226Z,60.00
2023-04-09T03:14:00.695Z,62.00
2023-04-09T03:16:27.713Z,67.50
2023-04-09T03:18:55.088Z,73.00
2023-04-09T03:21:22.103Z,79.75
2023-04-09T03:23:49.390Z,74.75
2023-04-09T03:26:16.547Z,86.00
2023-04-09T03:28:43.764Z,88.25
2023-04-09T03:31:10.852Z,80.00
2023-04-09T03:33:38.031Z,72.25
2023-04-09T03:36:05.689Z,75.50
2023-04-09T03:38:33.176Z,74.25
2023-04-09T03:41:00.105Z,71.75
2023-04-09T03:43:27.613Z,61.75
2023-04-09T03:45:54.709Z,72.00
2023-04-09T03:48:21.967Z,75.75
2023-04-09T03:50:49.088Z,69.00
2023-04-09T03:53:16.751Z,73.75
2023-04-09T03:55:43.774Z,90.00
2023-04-09T03:58:12.402Z,90.75
2023-04-09T04:00:39.396Z,72.50
2023-04-09T04:03:06.798Z,73.00
2023-04-09T04:05:33.920Z,3.25
2023-04-09T04:08:01.478Z,75.50
2023-04-09T04:10:28.430Z,78.00
2023-04-09T04:12:55.818Z,75.50
2023-04-09T04:15:22.850Z,75.25
2023-04-09T04:17:50.050Z,72.50
2023-04-09T04:20:17.090Z,60.00
2023-04-09T04:22:44.484Z,57.50
2023-04-09T04:25:11.725Z,69.50
2023-04-09T04:27:42.425Z,67.75
2023-04-09T04:30:10.003Z,60.75
2023-04-09T04:32:37.527Z,63.50
2023-04-09T04:35:04.863Z,68.50
2023-04-09T04:37:32.212Z,58.75
2023-04-09T04:40:01.654Z,66.50
2023-04-09T04:42:29.168Z,75.75
2023-04-09T04:44:56.236Z,76.75
2023-04-09T04:47:23.577Z,60.75
2023-04-09T04:49:50.663Z,70.75
2023-04-09T04:52:18.085Z,61.00
2023-04-09T04:54:44.992Z,72.75
2023-04-09T04:57:12.321Z,61.25
2023-04-09T04:59:40.762Z,84.75
2023-04-09T05:02:08.565Z,91.00
2023-04-09T05:04:35.711Z,82.75
2023-04-09T05:07:03.251Z,82.00
2023-04-09T05:09:30.317Z,62.75
2023-04-09T05:11:57.789Z,85.75
2023-04-09T05:14:25.500Z,87.00
2023-04-09T05:16:53.011Z,82.25
2023-04-09T05:19:19.977Z,68.75
2023-04-09T05:21:47.607Z,71.25
2023-04-09T05:24:14.741Z,72.00
2023-04-09T05:26:41.917Z,73.25
2023-04-09T05:29:09.026Z,77.25
2023-04-09T05:31:36.357Z,73.50
2023-04-09T05:34:03.561Z,84.75
2023-04-09T05:36:30.892Z,76.75
2023-04-09T05:38:57.907Z,84.00
2023-04-09T05:41:25.146Z,74.75
2023-04-09T05:43:52.374Z,81.00
2023-04-09T05:46:19.874Z,75.75
2023-04-09T05:48:46.992Z,75.75
2023-04-09T05:51:15.680Z,77.00
2023-04-09T05:53:44.810Z,88.00
2023-04-09T05:56:16.015Z,65.25
2023-04-09T05:58:43.121Z,70.75
2023-04-09T06:01:10.457Z,80.25
2023-04-09T06:03:37.704Z,71.00
2023-04-09T06:06:05.666Z,78.25
2023-04-09T06:08:32.734Z,69.00
2023-04-09T06:11:00.038Z,93.25
2023-04-09T06:13:27.200Z,91.00
2023-04-09T06:15:54.634Z,75.75
2023-04-09T06:18:22.237Z,71.75
2023-04-09T06:20:49.630Z,74.25
2023-04-09T06:23:16.845Z,72.50
2023-04-09T06:25:44.157Z,64.00
2023-04-09T06:28:11.668Z,59.75
2023-04-09T06:30:38.948Z,55.50
2023-04-09T06:33:06.172Z,59.50
2023-04-09T06:35:33.745Z,61.00
2023-04-09T06:38:00.886Z,55.50
2023-04-09T06:40:28.328Z,46.75
2023-04-09T06:42:55.641Z,55.25
2023-04-09T06:45:23.381Z,64.75
2023-04-09T06:47:50.356Z,60.00
2023-04-09T06:50:18.096Z,55.00
2023-04-09T06:52:45.020Z,59.00
2023-04-09T06:55:12.272Z,48.75
2023-04-09T06:57:39.427Z,47.00
2023-04-09T07:00:07.985Z,56.00
2023-04-09T07:02:35.372Z,45.75
2023-04-09T07:05:04.365Z,44.25
2023-04-09T07:07:31.806Z,39.50
2023-04-09T07:09:59.073Z,44.25
2023-04-09T07:12:35.415Z,34.00
2023-04-09T07:15:04.851Z,39.00
2023-04-09T07:17:32.627Z,38.00
2023-04-09T07:20:00.285Z,19.00
2023-04-09T07:22:29.094Z,38.50
2023-04-09T07:24:56.856Z,39.50
2023-04-09T07:27:28.680Z,40.00
2023-04-09T07:29:57.841Z,39.75
2023-04-09T07:32:26.370Z,38.25
2023-04-09T07:34:54.262Z,39.00
2023-04-09T07:37:21.659Z,38.00
2023-04-09T07:39:51.373Z,37.00
2023-04-09T07:42:18.522Z,35.50
2023-04-09T07:44:45.760Z,16.50
2023-04-09T07:47:13.107Z,34.50
2023-04-09T07:49:40.865Z,36.50
2023-04-09T07:52:08.359Z,38.25
2023-04-09T07:54:36.064Z,30.75
2023-04-09T07:57:03.219Z,34.00
2023-04-09T07:59:31.706Z,31.00
2023-04-09T08:01:59.786Z,31.00
2023-04-09T08:04:27.545Z,28.75
2023-04-09T08:06:54.579Z,32.25
2023-04-09T08:09:21.930Z,29.75
2023-04-09T08:11:49.601Z,30.75
2023-04-09T08:14:18.220Z,28.50
2023-04-09T08:16:47.641Z,35.00
2023-04-09T08:19:17.089Z,34.00
2023-04-09T08:21:44.500Z,31.75
2023-04-09T08:24:12.172Z,30.00
2023-04-09T08:26:42.378Z,31.00
2023-04-09T08:29:13.100Z,28.67
2023-04-09T08:31:40.295Z,32.00
2023-04-09T08:34:07.838Z,33.00
2023-04-09T08:36:35.977Z,32.00
2023-04-09T08:39:04.209Z,32.00
2023-04-09T08:41:31.541Z,31.75
2023-04-09T08:44:00.113Z,33.00
2023-04-09T08:46:28.034Z,32.00
2023-04-09T08:48:56.090Z,28.33
2023-04-09T08:51:26.981Z,33.50
2023-04-09T08:54:01.380Z,30.00
2023-04-09T08:56:29.510Z,31.33
2023-04-09T08:58:57.281Z,31.00
2023-04-09T09:01:25.669Z,32.00
2023-04-09T09:04:04.520Z,29.00
2023-04-09T09:06:33.853Z,31.33
2023-04-09T09:09:08.170Z,28.00
2023-04-09T09:11:37.129Z,32.33
2023-04-09T09:14:09.385Z,29.00
2023-04-09T09:16:43.762Z,28.67
2023-04-09T09:19:30.540Z,28.67
2023-04-09T09:22:06.864Z,30.33
2023-04-09T09:24:35.183Z,30.00
2023-04-09T09:27:02.943Z,30.33
2023-04-09T09:29:30.325Z,27.33
2023-04-09T09:31:57.329Z,29.67
2023-04-09T09:34:26.105Z,28.00
2023-04-09T09:36:53.154Z,26.33
2023-04-09T09:39:22.317Z,29.00
2023-04-09T09:42:07.774Z,26.00
2023-04-09T09:44:35.188Z,26.67
2023-04-09T09:47:04.092Z,14.00
2023-04-09T09:49:31.329Z,29.67
2023-04-09T09:52:00.164Z,25.00
2023-04-09T09:54:33.428Z,27.33
2023-04-09T09:57:04.995Z,24.00
2023-04-09T09:59:36.871Z,16.67
2023-04-09T10:02:18.423Z,23.67
2023-04-09T10:04:47.018Z,22.33
2023-04-09T10:07:16.694Z,22.00
2023-04-09T10:09:49.611Z,22.33
2023-04-09T10:14:45.374Z,21.00
2023-04-09T10:17:12.489Z,23.00
2023-04-09T10:19:44.934Z,21.25
2023-04-09T10:22:19.087Z,22.67
2023-04-09T10:24:47.257Z,23.00
2023-04-09T10:27:16.969Z,23.00
2023-04-09T10:29:46.296Z,23.00
2023-04-09T10:32:21.197Z,21.00
2023-04-09T10:34:49.532Z,22.75
2023-04-09T10:37:22.532Z,20.25
2023-04-09T10:39:51.637Z,22.75
2023-04-09T10:42:22.158Z,23.00
2023-04-09T10:45:04.862Z,19.00
2023-04-09T10:47:34.229Z,24.00
2023-04-09T10:50:18.477Z,24.00
2023-04-09T10:52:45.830Z,21.00
2023-04-09T10:55:40.201Z,25.33
2023-04-09T10:58:13.220Z,23.00
2023-04-09T11:00:45.263Z,23.33
2023-04-09T11:03:27.403Z,22.00
2023-04-09T11:06:01.948Z,22.33
2023-04-09T11:08:30.665Z,24.00
2023-04-09T11:10:58.648Z,25.00
2023-04-09T11:13:25.881Z,23.67
2023-04-09T11:15:55.459Z,24.00
2023-04-09T11:18:24.255Z,23.00
2023-04-09T11:20:59.404Z,24.33
2023-04-09T11:23:27.112Z,23.00
2023-04-09T11:25:55.391Z,26.67
2023-04-09T11:28:23.728Z,25.00
2023-04-09T11:30:52.093Z,24.00
2023-04-09T11:33:20.311Z,24.00
2023-04-09T11:35:48.203Z,25.00
2023-04-09T11:38:15.741Z,23.33
2023-04-09T11:40:48.774Z,24.67
2023-04-09T11:43:17.003Z,21.67
2023-04-09T11:45:44.908Z,24.00
2023-04-09T11:48:13.200Z,26.00
2023-04-09T11:50:40.852Z,20.33
2023-04-09T11:53:21.194Z,23.00
2023-04-09T11:55:51.748Z,23.67
2023-04-09T11:58:19.222Z,24.33
2023-04-09T12:00:46.570Z,23.00
2023-04-09T12:03:16.718Z,19.00
2023-04-09T12:05:50.991Z,24.33
2023-04-09T12:08:23.936Z,21.67
2023-04-09T12:10:53.683Z,24.00
2023-04-09T12:13:21.787Z,22.00
2023-04-09T12:15:50.034Z,22.67
2023-04-09T12:18:17.172Z,23.00
2023-04-09T12:20:46.745Z,22.00
2023-04-09T12:23:13.914Z,16.33
2023-04-09T12:25:42.960Z,19.33
2023-04-09T12:28:12.335Z,20.33
2023-04-09T12:30:39.771Z,20.00
2023-04-09T12:33:08.239Z,19.33
2023-04-09T12:35:38.329Z,21.00
2023-04-09T12:38:05.981Z,20.67
2023-04-09T12:40:33.646Z,22.00
2023-04-09T12:43:01.637Z,22.67
2023-04-09T12:45:30.152Z,19.67
2023-04-09T12:47:57.133Z,22.00
2023-04-09T12:50:25.533Z,21.00
2023-04-09T12:52:52.470Z,20.33
2023-04-09T12:55:19.720Z,21.00
2023-04-09T12:57:47.336Z,21.25
2023-04-09T13:00:15.294Z,22.67
2023-04-09T13:02:42.480Z,17.67
2023-04-09T13:05:10.764Z,21.00
2023-04-09T13:07:37.797Z,21.00
2023-04-09T13:10:05.425Z,21.00
2023-04-09T13:12:32.838Z,21.00
2023-04-09T13:15:00.379Z,22.67
2023-04-09T13:17:27.437Z,20.00
2023-04-09T13:19:55.003Z,21.00
2023-04-09T13:22:22.129Z,17.00
2023-04-09T13:24:49.499Z,19.33
2023-04-09T13:27:17.432Z,21.00
2023-04-09T13:29:44.809Z,18.33
2023-04-09T13:32:11.764Z,20.00
2023-04-09T13:34:39.900Z,20.33
2023-04-09T13:37:07.040Z,21.00
2023-04-09T13:39:34.365Z,23.67
2023-04-09T13:42:07.314Z,21.00
2023-04-09T13:44:42.657Z,21.33
2023-04-09T13:47:13.126Z,23.00
2023-04-09T13:49:41.386Z,23.33
2023-04-09T13:52:08.829Z,19.67
2023-04-09T13:54:37.072Z,23.33
2023-04-09T13:57:04.261Z,24.33
2023-04-09T13:59:31.694Z,21.67
2023-04-09T14:01:58.794Z,21.00
2023-04-09T14:04:26.119Z,19.67
2023-04-09T14:06:53.170Z,24.00
2023-04-09T14:09:20.727Z,23.67
2023-04-09T14:11:47.708Z,21.00
2023-04-09T14:14:15.198Z,24.00
2023-04-09T14:16:42.559Z,23.33
2023-04-09T14:19:10.507Z,25.00
2023-04-09T14:21:37.672Z,23.67
2023-04-09T14:24:06.118Z,23.00
2023-04-09T14:26:33.155Z,24.00
2023-04-09T14:29:00.806Z,9.00
2023-04-09T14:31:28.133Z,22.67
2023-04-09T14:33:55.401Z,25.00
2023-04-09T14:36:22.682Z,25.67
2023-04-09T14:38:50.457Z,23.33
2023-04-09T14:41:17.500Z,24.00
2023-04-09T14:43:44.832Z,24.00
2023-04-09T14:46:12.285Z,24.00
2023-04-09T14:48:40.111Z,22.00
2023-04-09T14:51:09.869Z,21.00
2023-04-09T14:53:37.958Z,24.00
2023-04-09T14:56:05.225Z,24.67
2023-04-09T14:58:32.741Z,24.00
2023-04-09T15:00:59.977Z,22.33
2023-04-09T15:03:27.691Z,21.67
2023-04-09T15:05:54.992Z,25.00
2023-04-09T15:08:25.717Z,25.00
2023-04-09T15:10:52.794Z,23.00
2023-04-09T15:13:19.985Z,23.33
2023-04-09T15:15:47.078Z,23.00
2023-04-09T15:18:15.035Z,23.00
2023-04-09T15:20:43.633Z,20.33
2023-04-09T15:23:11.236Z,23.00
2023-04-09T15:25:38.635Z,23.67
2023-04-09T15:28:06.872Z,22.33
2023-04-09T15:30:35.539Z,23.67
2023-04-09T15:33:02.988Z,24.67
2023-04-09T15:35:30.058Z,25.00
2023-04-09T15:37:57.687Z,27.33
2023-04-09T15:40:24.876Z,24.33
2023-04-09T15:42:52.258Z,22.00
2023-04-09T15:45:19.816Z,26.00
2023-04-09T15:47:47.615Z,25.67
2023-04-09T15:50:15.100Z,26.00
2023-04-09T15:52:42.644Z,25.67
2023-04-09T15:55:09.898Z,24.00
2023-04-09T15:57:38.877Z,26.00
2023-04-09T16:00:10.945Z,15.67
2023-04-09T16:02:39.178Z,24.00
2023-04-09T16:05:07.504Z,25.67
2023-04-09T16:07:34.960Z,24.00
2023-04-09T16:10:02.315Z,27.00
2023-04-09T16:12:29.973Z,30.00
2023-04-09T16:15:00.587Z,29.50
2023-04-09T16:17:28.322Z,31.50
2023-04-09T16:19:56.389Z,33.75
2023-04-09T16:22:23.883Z,31.75
2023-04-09T16:24:50.771Z,34.25
2023-04-09T16:27:18.371Z,30.50
2023-04-09T16:29:46.369Z,41.00
2023-04-09T16:32:13.975Z,34.00
2023-04-09T16:34:41.296Z,31.00
2023-04-09T16:37:09.032Z,28.00
2023-04-09T16:39:36.052Z,29.67
2023-04-09T16:42:03.578Z,25.25
2023-04-09T16:44:30.928Z,30.25
2023-04-09T16:46:58.399Z,34.00
2023-04-09T16:49:26.272Z,32.00
2023-04-09T16:51:54.193Z,29.00
2023-04-09T16:54:21.475Z,37.75
2023-04-09T16:56:49.119Z,34.00
2023-04-09T16:59:18.539Z,34.00
2023-04-09T17:01:45.880Z,37.00
2023-04-09T17:04:13.007Z,39.75
2023-04-09T17:06:40.662Z,47.00
2023-04-09T17:09:07.712Z,45.00
2023-04-09T17:11:35.885Z,44.75
2023-04-09T17:14:03.410Z,42.75
2023-04-09T17:16:30.885Z,45.50
2023-04-09T17:18:58.386Z,40.00
2023-04-09T17:21:26.591Z,39.75
2023-04-09T17:23:53.736Z,41.00
2023-04-09T17:26:21.160Z,41.50
2023-04-09T17:28:48.237Z,38.50
2023-04-09T17:31:16.220Z,45.25
2023-04-09T17:33:47.772Z,47.75
2023-04-09T17:36:17.991Z,55.00
2023-04-09T17:38:45.533Z,36.25
2023-04-09T17:41:13.239Z,32.75
2023-04-09T17:43:40.373Z,35.00
2023-04-09T17:46:08.906Z,32.25
2023-04-09T17:48:39.186Z,31.25
2023-04-09T17:51:07.280Z,32.25
2023-04-09T17:53:34.407Z,29.00
2023-04-09T17:56:04.083Z,31.00
2023-04-09T17:58:31.291Z,31.25
2023-04-09T18:00:59.735Z,31.00
2023-04-09T18:03:27.572Z,28.25
2023-04-09T18:05:54.944Z,27.75
2023-04-09T18:08:22.555Z,29.00
2023-04-09T18:11:05.202Z,29.00
2023-04-09T18:13:39.138Z,31.25
2023-04-09T18:16:10.734Z,32.25
2023-04-09T18:18:38.500Z,28.50
2023-04-09T18:21:06.429Z,27.75
2023-04-09T18:23:33.887Z,26.25
2023-04-09T18:26:01.208Z,27.00
2023-04-09T18:28:29.436Z,27.75
2023-04-09T18:30:56.559Z,28.00
2023-04-09T18:33:23.973Z,28.25
2023-04-09T18:35:51.529Z,30.00
2023-04-09T18:38:18.930Z,30.75
2023-04-09T18:40:46.001Z,29.75
2023-04-09T18:43:14.002Z,31.75
2023-04-09T18:45:41.309Z,27.75
2023-04-09T18:48:09.003Z,31.00
2023-04-09T18:50:36.646Z,31.00
2023-04-09T18:53:05.669Z,32.00
2023-04-09T18:55:33.052Z,27.00
2023-04-09T18:58:00.887Z,27.75
2023-04-09T19:00:28.018Z,31.25
2023-04-09T19:02:55.521Z,29.50
2023-04-09T19:05:22.967Z,10.50
2023-04-09T19:07:50.409Z,28.25
2023-04-09T19:10:17.320Z,32.00
2023-04-09T19:12:51.013Z,33.75
2023-04-09T19:15:17.908Z,32.75
2023-04-09T19:17:45.379Z,34.00
2023-04-09T19:20:13.766Z,33.75
2023-04-09T19:22:41.089Z,35.25
2023-04-09T19:25:08.615Z,34.25
2023-04-09T19:27:36.247Z,34.00
2023-04-09T19:30:04.029Z,32.00
2023-04-09T19:32:31.314Z,33.00
2023-04-09T19:34:58.645Z,28.00
2023-04-09T19:37:28.261Z,31.75
2023-04-09T19:39:55.582Z,29.75
2023-04-09T19:42:23.737Z,31.00
2023-04-09T19:44:50.790Z,29.00
2023-04-09T19:47:18.134Z,29.50
2023-04-09T19:49:45.613Z,29.50
2023-04-09T19:52:13.195Z,30.25
2023-04-09T19:54:40.246Z,33.00
2023-04-09T19:57:07.769Z,40.00
2023-04-09T19:59:37.521Z,43.00
2023-04-09T20:02:05.002Z,45.75
2023-04-09T20:04:32.480Z,57.25
2023-04-09T20:06:59.703Z,47.50
2023-04-09T20:09:29.187Z,51.50
2023-04-09T20:11:58.524Z,47.25
2023-04-09T20:14:25.643Z,36.00
2023-04-09T20:16:52.981Z,51.75
2023-04-09T20:19:22.252Z,56.00
2023-04-09T20:21:49.696Z,44.75
2023-04-09T20:24:17.979Z,45.00
2023-04-09T20:26:46.965Z,40.00
2023-04-09T20:29:15.001Z,38.75
2023-04-09T20:31:42.264Z,38.00
2023-04-09T20:34:09.710Z,40.25
2023-04-09T20:36:37.848Z,51.75
2023-04-09T20:39:04.974Z,51.25
2023-04-09T20:41:32.804Z,52.00
2023-04-09T20:44:00.137Z,57.33
2023-04-09T20:46:27.544Z,51.25
2023-04-09T20:48:55.902Z,48.25
2023-04-09T20:51:23.343Z,54.75
2023-04-09T20:53:50.408Z,58.50
2023-04-09T20:56:18.528Z,54.75
2023-04-09T20:58:45.579Z,56.25
2023-04-09T21:01:13.307Z,54.25
2023-04-09T21:03:41.208Z,49.00
2023-04-09T21:06:08.999Z,48.00
2023-04-09T21:08:36.542Z,50.50
2023-04-09T21:11:04.173Z,38.00
2023-04-09T21:13:40.366Z,46.75
2023-04-09T21:16:18.646Z,46.75
2023-04-09T21:18:45.948Z,47.50
2023-04-09T21:21:14.328Z,43.50
2023-04-09T21:23:41.706Z,38.00
2023-04-09T21:26:10.336Z,45.25
2023-04-09T21:28:37.324Z,41.25
2023-04-09T21:31:05.057Z,45.00
2023-04-09T21:33:32.143Z,41.25
2023-04-09T21:35:59.425Z,44.25
2023-04-09T21:38:27.200Z,45.25
2023-04-09T21:40:54.542Z,50.50
2023-04-09T21:43:21.548Z,57.00
2023-04-09T21:45:49.106Z,46.25
2023-04-09T21:48:16.130Z,52.50
2023-04-09T21:50:43.422Z,51.75
2023-04-09T21:53:11.087Z,52.50
2023-04-09T21:55:39.013Z,57.50
2023-04-09T21:58:06.286Z,43.75
2023-04-09T22:00:33.635Z,52.50
2023-04-09T22:03:03.826Z,48.75
2023-04-09T22:05:34.579Z,49.00
2023-04-09T22:08:01.765Z,48.25
2023-04-09T22:10:29.084Z,54.75
2023-04-09T22:12:56.221Z,40.00
2023-04-09T22:15:23.592Z,48.75
2023-04-09T22:17:50.772Z,50.50
2023-04-09T22:20:18.174Z,53.75
2023-04-09T22:22:45.426Z,52.50
2023-04-09T22:25:12.596Z,49.00
2023-04-09T22:27:39.726Z,42.50
2023-04-09T22:30:07.999Z,46.50
2023-04-09T22:32:35.278Z,45.50
2023-04-09T22:35:02.633Z,42.25
2023-04-09T22:37:29.663Z,42.75
2023-04-09T22:39:56.902Z,43.00
2023-04-09T22:42:25.562Z,41.00
2023-04-09T22:44:53.981Z,38.00
2023-04-09T22:47:21.099Z,39.75
2023-04-09T22:49:52.922Z,39.50
2023-04-09T22:52:19.822Z,37.75
2023-04-09T22:54:47.092Z,37.75
2023-04-09T22:57:14.156Z,39.75
2023-04-09T22:59:41.576Z,38.00
2023-04-09T23:02:08.635Z,40.25
2023-04-09T23:04:36.930Z,38.75
2023-04-09T23:07:04.096Z,39.50
2023-04-09T23:09:32.126Z,40.00
2023-04-09T23:11:59.170Z,39.00
2023-04-09T23:14:26.698Z,39.00
2023-04-09T23:16:53.646Z,39.25
2023-04-09T23:19:21.204Z,37.50
2023-04-09T23:21:48.106Z,38.00
2023-04-09T23:24:15.547Z,37.00
2023-04-09T23:26:42.544Z,36.00
2023-04-09T23:29:09.864Z,32.25
2023-04-09T23:31:37.058Z,37.75
2023-04-09T23:34:04.539Z,32.50
2023-04-09T23:36:31.753Z,34.50
2023-04-09T23:38:58.970Z,31.75
2023-04-09T23:41:26.859Z,34.75
2023-04-09T23:43:54.253Z,24.25
2023-04-09T23:46:21.459Z,37.50
2023-04-09T23:48:48.746Z,35.25
2023-04-09T23:51:21.763Z,37.75
2023-04-09T23:53:49.566Z,38.00
2023-04-09T23:56:17.002Z,37.75
2023-04-09T23:58:44.420Z,36.00
